createdAt,value
2023-04-08T05:02:33.574Z,7.50
2023-04-08T05:07:37.405Z,7.50
2023-04-08T05:17:46.899Z,7.50
2023-04-08T05:22:51.142Z,7.40
2023-04-08T05:33:00.767Z,7.30
2023-04-08T05:43:08.489Z,7.20
2023-04-08T05:48:13.490Z,7.20
2023-04-08T05:53:17.033Z,7.20
2023-04-08T05:58:20.824Z,6.40
2023-04-08T06:03:25.984Z,7.20
2023-04-08T06:08:29.822Z,7.20
2023-04-08T06:13:33.672Z,7.30
2023-04-08T06:18:38.782Z,7.30
2023-04-08T06:23:42.623Z,7.40
2023-04-08T06:33:52.426Z,7.60
2023-04-08T06:38:56.160Z,7.70
2023-04-08T06:43:59.707Z,7.90
2023-04-08T06:49:06.881Z,8.20
2023-04-08T06:59:14.709Z,8.60
2023-04-08T07:04:19.819Z,8.90
2023-04-08T07:09:23.404Z,9.10
2023-04-08T07:14:27.073Z,9.30
2023-04-08T07:19:32.404Z,9.60
2023-04-08T07:24:35.899Z,9.90
2023-04-08T07:29:39.415Z,10.20
2023-04-08T07:34:44.321Z,10.40
2023-04-08T07:39:47.847Z,10.80
2023-04-08T07:44:52.357Z,11.10
2023-04-08T07:49:57.052Z,11.40
2023-04-08T07:55:00.609Z,11.60
2023-04-08T08:00:04.929Z,11.90
2023-04-08T08:05:17.871Z,12.10
2023-04-08T08:15:25.298Z,12.60
2023-04-08T08:20:30.429Z,12.90
2023-04-08T08:25:34.094Z,13.20
2023-04-08T08:30:38.445Z,13.60
2023-04-08T08:35:43.347Z,13.80
2023-04-08T08:40:47.332Z,14.10
2023-04-08T08:50:56.422Z,14.80
2023-04-08T09:01:35.678Z,15.70
2023-04-08T09:06:41.377Z,16.30
2023-04-08T09:11:46.430Z,16.90
2023-04-08T09:16:50.349Z,17.40
2023-04-08T09:22:11.388Z,18.10
2023-04-08T09:27:15.035Z,18.80
2023-04-08T09:32:18.566Z,19.20
2023-04-08T09:37:23.603Z,19.50
2023-04-08T09:42:27.552Z,20.00
2023-04-08T09:47:35.839Z,20.30
2023-04-08T09:52:45.629Z,20.80
2023-04-08T09:57:59.860Z,21.40
2023-04-08T10:03:11.189Z,22.00
2023-04-08T10:08:16.706Z,22.70
2023-04-08T10:13:20.624Z,23.20
2023-04-08T10:18:33.855Z,23.70
2023-04-08T10:24:00.062Z,23.80
2023-04-08T10:29:43.866Z,24.40
2023-04-08T10:34:54.641Z,24.70
2023-04-08T10:39:59.631Z,24.80
2023-04-08T10:45:03.933Z,25.20
2023-04-08T10:50:13.660Z,25.60
2023-04-08T10:55:23.572Z,25.80
2023-04-08T11:00:35.390Z,25.90
2023-04-08T11:05:39.938Z,25.80
2023-04-08T11:10:45.495Z,25.90
2023-04-08T11:15:49.285Z,25.80
2023-04-08T11:20:53.902Z,25.80
2023-04-08T11:25:59.351Z,25.50
2023-04-08T11:31:04.264Z,25.80
2023-04-08T11:36:08.573Z,25.90
2023-04-08T11:41:13.590Z,26.30
2023-04-08T11:46:17.279Z,26.90
2023-04-08T11:51:20.869Z,27.30
2023-04-08T11:56:26.726Z,27.30
2023-04-08T12:01:30.410Z,27.20
2023-04-08T12:06:34.083Z,26.90
2023-04-08T12:11:39.077Z,26.10
2023-04-08T12:16:42.799Z,26.20
2023-04-08T12:21:46.532Z,26.80
2023-04-08T12:26:51.410Z,26.80
2023-04-08T12:31:55.033Z,26.50
2023-04-08T12:36:58.698Z,27.20
2023-04-08T12:42:04.539Z,27.60
2023-04-08T12:47:08.586Z,27.70
2023-04-08T12:52:12.299Z,28.00
2023-04-08T12:57:17.574Z,27.60
2023-04-08T13:02:21.313Z,27.50
2023-04-08T13:07:24.899Z,27.00
2023-04-08T13:12:29.777Z,27.00
2023-04-08T13:17:33.984Z,26.60
2023-04-08T13:22:37.332Z,26.80
2023-04-08T13:27:43.324Z,26.80
2023-04-08T13:32:47.906Z,26.70
2023-04-08T13:37:51.523Z,26.40
2023-04-08T13:42:56.452Z,26.30
2023-04-08T13:48:00.109Z,26.50
2023-04-08T13:53:04.060Z,26.30
2023-04-08T13:58:21.216Z,26.60
2023-04-08T14:03:28.158Z,26.70
2023-04-08T14:08:31.835Z,27.10
2023-04-08T14:13:36.764Z,27.40
2023-04-08T14:18:40.461Z,27.50
2023-04-08T14:23:44.026Z,27.70
2023-04-08T14:28:49.160Z,27.30
2023-04-08T14:33:52.841Z,27.20
2023-04-08T14:38:56.862Z,27.20
2023-04-08T14:44:01.929Z,27.20
2023-04-08T14:49:05.488Z,26.70
2023-04-08T14:54:09.222Z,26.40
2023-04-08T14:59:14.080Z,26.30
2023-04-08T15:04:17.674Z,25.80
2023-04-08T15:09:21.771Z,25.00
2023-04-08T15:14:26.726Z,24.10
2023-04-08T15:19:30.582Z,23.70
2023-04-08T15:24:34.323Z,23.40
2023-04-08T15:29:39.211Z,22.60
2023-04-08T15:34:42.735Z,21.90
2023-04-08T15:39:46.347Z,21.30
2023-04-08T15:44:51.246Z,21.00
2023-04-08T15:49:55.886Z,21.00
2023-04-08T15:54:59.455Z,20.90
2023-04-08T16:00:08.380Z,20.60
2023-04-08T16:05:15.729Z,20.50
2023-04-08T16:10:19.527Z,20.40
2023-04-08T16:15:24.399Z,20.10
2023-04-08T16:20:28.894Z,19.80
2023-04-08T16:25:32.317Z,19.60
2023-04-08T16:30:37.637Z,19.30
2023-04-08T16:35:41.377Z,19.40
2023-04-08T16:40:44.913Z,19.30
2023-04-08T16:45:49.868Z,19.20
2023-04-08T16:50:53.434Z,19.20
2023-04-08T16:55:57.002Z,19.10
2023-04-08T17:01:02.007Z,19.00
2023-04-08T17:06:09.222Z,18.90
2023-04-08T17:11:14.719Z,18.90
2023-04-08T17:16:19.966Z,18.80
2023-04-08T17:21:23.960Z,18.60
2023-04-08T17:26:28.254Z,18.50
2023-04-08T17:31:33.267Z,18.30
2023-04-08T17:36:36.923Z,18.20
2023-04-08T17:41:42.043Z,18.20
2023-04-08T17:46:47.915Z,18.20
2023-04-08T17:51:51.572Z,18.20
2023-04-08T17:56:55.113Z,18.10
2023-04-08T18:02:00.046Z,18.00
2023-04-08T18:07:05.391Z,17.90
2023-04-08T18:12:09.164Z,17.80
2023-04-08T18:17:14.474Z,17.80
2023-04-08T18:22:18.020Z,17.70
2023-04-08T18:27:21.594Z,17.60
2023-04-08T18:32:26.704Z,17.40
2023-04-08T18:37:31.823Z,17.40
2023-04-08T18:42:35.467Z,17.30
2023-04-08T18:47:40.369Z,17.20
2023-04-08T18:52:43.878Z,17.10
2023-04-08T18:57:47.550Z,16.90
2023-04-08T19:02:52.991Z,16.80
2023-04-08T19:07:56.620Z,16.60
2023-04-08T19:13:00.678Z,16.50
2023-04-08T19:18:05.743Z,16.50
2023-04-08T19:23:09.456Z,16.40
2023-04-08T19:28:14.289Z,16.30
2023-04-08T19:33:19.552Z,16.20
2023-04-08T19:38:23.215Z,16.20
2023-04-08T19:43:26.925Z,16.10
2023-04-08T19:48:32.617Z,16.10
2023-04-08T19:53:36.151Z,16.10
2023-04-08T19:58:39.707Z,16.00
2023-04-08T20:03:50.038Z,15.90
2023-04-08T20:08:54.761Z,15.70
2023-04-08T20:13:58.203Z,15.60
2023-04-08T20:19:03.372Z,15.50
2023-04-08T20:24:07.323Z,15.30
2023-04-08T20:29:11.000Z,15.20
2023-04-08T20:34:15.946Z,15.20
2023-04-08T20:39:19.615Z,15.10
2023-04-08T20:44:23.220Z,15.00
2023-04-08T20:49:28.622Z,14.90
2023-04-08T20:59:36.108Z,14.70
2023-04-08T21:04:40.998Z,14.60
2023-04-08T21:09:44.534Z,14.50
2023-04-08T21:14:48.054Z,14.30
2023-04-08T21:19:53.171Z,14.20
2023-04-08T21:24:57.882Z,14.20
2023-04-08T21:30:01.341Z,14.20
2023-04-08T21:35:06.829Z,14.10
2023-04-08T21:40:11.375Z,14.10
2023-04-08T21:45:15.459Z,13.90
2023-04-08T21:50:20.772Z,13.90
2023-04-08T21:55:24.413Z,13.80
2023-04-08T22:00:28.156Z,13.70
2023-04-08T22:05:34.570Z,13.50
2023-04-08T22:10:38.656Z,13.50
2023-04-08T22:15:42.187Z,13.30
2023-04-08T22:20:47.062Z,13.30
2023-04-08T22:25:51.113Z,13.20
